Terminal Aerodrome Forecast
Issued by NWS Jackson, KY

Home | Current Version | Previous Version | Text Only | Print | Product List | Glossary On
Versions: 1 2 3 4 5 6 7 8 9 10 11 12 13 14 15 16 17 18 19 20 21 22
502
FTUS43 KJKL 280407 AAB
TAFJKL
TAF AMD
KJKL 280407Z 2804/2824 VRB03KT 5SM BR BKN130 BKN200
      TEMPO 2804/2807 1SM -SHRA BR SCT003 BKN080 OVC130
     FM280700 00000KT 3SM BR BKN150
     FM281200 VRB03KT 3SM SHRA BR VCTS BKN040CB
     FM281600 VRB03KT 3SM SHRA BR VCTS SCT010 BKN020CB=

USA.gov is the U.S. government's official web portal to all federal, state and local government web resources and services.